createdAt,value
2018-04-27T00:02:30.544Z,3.90
2018-04-27T00:05:05.141Z,4.07
2018-04-27T00:07:40.977Z,4.50
2018-04-27T00:10:16.005Z,4.27
2018-04-27T00:12:51.243Z,4.07
2018-04-27T00:15:25.882Z,4.23
2018-04-27T00:18:01.312Z,4.23
2018-04-27T00:20:36.056Z,3.97
2018-04-27T00:23:10.969Z,4.00
2018-04-27T00:25:46.631Z,4.13
2018-04-27T00:28:20.931Z,3.50
2018-04-27T00:30:56.062Z,4.50
2018-04-27T00:33:31.328Z,4.30
2018-04-27T00:36:05.004Z,3.93
2018-04-27T00:38:41.574Z,4.23
2018-04-27T00:41:17.965Z,4.30
2018-04-27T00:43:51.868Z,4.33
2018-04-27T00:46:25.670Z,3.87
2018-04-27T00:49:00.072Z,3.97
2018-04-27T00:51:33.768Z,3.70
2018-04-27T00:54:11.471Z,4.17
2018-04-27T00:56:46.194Z,4.67
2018-04-27T00:59:21.445Z,4.30
2018-04-27T01:01:56.881Z,4.20
2018-04-27T01:04:31.915Z,4.93
2018-04-27T01:07:06.863Z,4.40
2018-04-27T01:09:41.467Z,4.10
2018-04-27T01:12:16.202Z,3.97
2018-04-27T01:14:51.845Z,4.20
2018-04-27T01:17:27.758Z,4.03
2018-04-27T01:20:02.333Z,4.87
2018-04-27T01:22:37.674Z,5.30
2018-04-27T01:25:12.582Z,4.83
2018-04-27T01:27:47.325Z,4.60
2018-04-27T01:30:23.058Z,5.27
2018-04-27T01:32:59.018Z,5.03
2018-04-27T01:35:32.820Z,4.83
2018-04-27T01:38:07.448Z,5.07
2018-04-27T01:40:42.384Z,4.83
2018-04-27T01:43:16.182Z,5.30
2018-04-27T01:45:51.627Z,4.83
2018-04-27T01:48:25.344Z,4.83
2018-04-27T01:51:00.366Z,4.90
2018-04-27T01:53:34.988Z,5.30
2018-04-27T01:56:10.323Z,5.20
2018-04-27T01:58:44.904Z,5.40
2018-04-27T02:01:18.961Z,5.30
2018-04-27T02:03:53.479Z,5.13
2018-04-27T02:06:29.180Z,5.00
2018-04-27T02:09:03.548Z,5.20
2018-04-27T02:11:38.392Z,5.00
2018-04-27T02:14:13.001Z,4.80
2018-04-27T02:16:47.120Z,5.50
2018-04-27T02:19:21.428Z,4.87
2018-04-27T02:21:56.246Z,5.23
2018-04-27T02:24:30.469Z,5.03
2018-04-27T02:27:05.300Z,4.97
2018-04-27T02:29:40.233Z,5.17
2018-04-27T02:32:14.759Z,5.83
2018-04-27T02:34:49.804Z,5.23
2018-04-27T02:37:23.583Z,5.23
2018-04-27T02:39:59.035Z,5.07
2018-04-27T02:42:33.759Z,5.20
2018-04-27T02:45:09.823Z,5.50
2018-04-27T02:47:43.831Z,4.83
2018-04-27T02:50:19.785Z,5.17
2018-04-27T02:52:54.720Z,5.60
2018-04-27T02:55:30.975Z,5.30
2018-04-27T02:58:05.597Z,5.37
2018-04-27T03:00:40.547Z,5.07
2018-04-27T03:03:15.462Z,5.10
2018-04-27T03:05:50.596Z,5.23
2018-04-27T03:08:24.415Z,5.10
2018-04-27T03:10:59.641Z,5.47
2018-04-27T03:13:35.491Z,5.50
2018-04-27T03:16:10.008Z,4.83
2018-04-27T03:18:44.642Z,4.90
2018-04-27T03:21:18.406Z,5.13
2018-04-27T03:23:52.614Z,5.33
2018-04-27T03:26:28.202Z,6.13
2018-04-27T03:29:02.935Z,5.97
2018-04-27T03:31:38.477Z,5.33
2018-04-27T03:34:13.425Z,5.53
2018-04-27T03:36:48.838Z,5.10
2018-04-27T03:39:22.734Z,5.40
2018-04-27T03:41:58.418Z,5.53
2018-04-27T03:44:32.203Z,5.23
2018-04-27T03:47:08.698Z,5.10
2018-04-27T03:49:43.411Z,5.50
2018-04-27T03:52:17.838Z,5.17
2018-04-27T03:54:52.753Z,5.50
2018-04-27T03:57:28.213Z,5.07
2018-04-27T04:00:15.533Z,5.97
2018-04-27T04:03:01.710Z,5.50
2018-04-27T04:05:36.311Z,5.10
2018-04-27T04:08:10.340Z,5.27
2018-04-27T04:10:45.282Z,5.90
2018-04-27T04:13:21.440Z,5.40
2018-04-27T04:15:57.308Z,5.40
2018-04-27T04:18:30.794Z,5.70
2018-04-27T04:21:06.436Z,5.63
2018-04-27T04:23:41.573Z,5.43
2018-04-27T04:26:15.881Z,5.03
2018-04-27T04:28:50.299Z,5.23
2018-04-27T04:31:25.099Z,5.13
2018-04-27T04:33:59.756Z,4.97
2018-04-27T04:36:34.107Z,5.47
2018-04-27T04:39:10.548Z,4.83
2018-04-27T04:41:47.299Z,5.13
2018-04-27T04:44:21.933Z,5.43
2018-04-27T04:46:58.394Z,5.20
2018-04-27T04:49:33.643Z,4.87
2018-04-27T04:52:08.682Z,5.53
2018-04-27T04:54:44.436Z,5.70
2018-04-27T04:57:19.687Z,5.87
2018-04-27T04:59:54.302Z,5.40
2018-04-27T05:02:29.012Z,5.77
2018-04-27T05:05:02.819Z,6.13
2018-04-27T05:07:37.956Z,5.73
2018-04-27T05:10:13.605Z,4.90
2018-04-27T05:12:49.759Z,5.20
2018-04-27T05:15:26.134Z,4.90
2018-04-27T05:18:01.754Z,5.37
2018-04-27T05:20:37.225Z,5.13
2018-04-27T05:23:12.048Z,5.43
2018-04-27T05:25:48.615Z,5.30
2018-04-27T05:28:23.877Z,5.50
2018-04-27T05:31:10.143Z,4.73
2018-04-27T05:33:46.627Z,5.93
2018-04-27T05:36:21.433Z,5.53
2018-04-27T05:38:56.882Z,5.87
2018-04-27T05:41:31.713Z,5.70
2018-04-27T05:44:07.471Z,5.80
2018-04-27T05:46:41.587Z,5.53
2018-04-27T05:49:16.614Z,6.03
2018-04-27T05:51:50.620Z,5.50
2018-04-27T05:54:27.895Z,5.10
2018-04-27T05:57:01.609Z,5.47
2018-04-27T05:59:37.277Z,5.00
2018-04-27T06:02:11.260Z,4.70
2018-04-27T06:04:48.787Z,5.27
2018-04-27T06:07:22.574Z,5.40
2018-04-27T06:09:58.216Z,4.83
2018-04-27T06:12:36.167Z,4.70
2018-04-27T06:15:10.840Z,4.97
2018-04-27T06:17:45.728Z,4.43
2018-04-27T06:20:19.965Z,4.60
2018-04-27T06:22:55.491Z,5.37
2018-04-27T06:25:29.328Z,4.80
2018-04-27T06:28:04.162Z,4.80
2018-04-27T06:30:39.502Z,4.77
2018-04-27T06:33:14.147Z,4.63
2018-04-27T06:35:48.750Z,4.80
2018-04-27T06:38:23.152Z,4.63
2018-04-27T06:40:59.014Z,4.90
2018-04-27T06:43:33.654Z,4.10
2018-04-27T06:46:09.311Z,4.70
2018-04-27T06:48:43.210Z,5.37
2018-04-27T06:51:20.391Z,4.80
2018-04-27T06:53:56.835Z,4.83
2018-04-27T06:56:30.955Z,4.80
2018-04-27T06:59:07.834Z,4.93
2018-04-27T07:01:41.644Z,4.77
2018-04-27T07:04:18.526Z,4.80
2018-04-27T07:06:52.530Z,4.27
2018-04-27T07:09:27.878Z,4.63
2018-04-27T07:12:02.899Z,4.27
2018-04-27T07:14:39.431Z,4.23
2018-04-27T07:17:13.999Z,4.10
2018-04-27T07:19:48.835Z,3.80
2018-04-27T07:22:23.231Z,3.87
2018-04-27T07:24:58.783Z,3.93
2018-04-27T07:27:32.499Z,3.80
2018-04-27T07:30:07.825Z,3.30
2018-04-27T07:32:42.861Z,3.70
2018-04-27T07:35:18.307Z,3.27
2018-04-27T07:37:53.047Z,3.00
2018-04-27T07:40:28.886Z,2.87
2018-04-27T07:43:05.055Z,3.17
2018-04-27T07:45:40.279Z,2.80
2018-04-27T07:48:16.347Z,3.00
2018-04-27T07:50:51.289Z,2.97
2018-04-27T07:53:25.077Z,2.70
2018-04-27T07:56:00.311Z,2.30
2018-04-27T07:58:34.018Z,2.43
2018-04-27T08:01:08.972Z,2.07
2018-04-27T08:03:42.841Z,2.00
2018-04-27T08:06:17.463Z,2.13
2018-04-27T08:08:52.492Z,1.70
2018-04-27T08:11:28.771Z,2.03
2018-04-27T08:14:06.056Z,1.87
2018-04-27T08:16:41.554Z,2.10
2018-04-27T08:19:17.040Z,1.97
2018-04-27T08:21:52.026Z,2.30
2018-04-27T08:24:28.604Z,2.10
2018-04-27T08:27:03.192Z,2.07
2018-04-27T08:29:38.519Z,2.20
2018-04-27T08:32:13.130Z,2.20
2018-04-27T08:34:48.576Z,2.00
2018-04-27T08:37:22.493Z,2.27
2018-04-27T08:39:59.769Z,2.20
2018-04-27T08:42:34.758Z,2.20
2018-04-27T08:45:09.436Z,2.27
2018-04-27T08:47:44.256Z,2.60
2018-04-27T08:50:19.817Z,2.57
2018-04-27T08:52:56.483Z,2.30
2018-04-27T08:55:31.222Z,2.03
2018-04-27T08:58:08.175Z,2.40
2018-04-27T09:00:42.312Z,2.20
2018-04-27T09:03:17.444Z,2.47
2018-04-27T09:05:52.155Z,2.70
2018-04-27T09:08:29.335Z,2.97
2018-04-27T09:11:03.041Z,2.77
2018-04-27T09:13:37.866Z,2.80
2018-04-27T09:16:11.786Z,2.80
2018-04-27T09:18:47.339Z,2.70
2018-04-27T09:21:21.953Z,2.77
2018-04-27T09:23:57.264Z,2.57
2018-04-27T09:26:31.092Z,2.77
2018-04-27T09:29:07.563Z,2.97
2018-04-27T09:31:41.455Z,2.90
2018-04-27T09:34:18.039Z,3.60
2018-04-27T09:36:52.665Z,3.10
2018-04-27T09:39:29.432Z,3.07
2018-04-27T09:42:05.181Z,3.10
2018-04-27T09:44:39.083Z,2.70
2018-04-27T09:47:13.717Z,3.50
2018-04-27T09:49:48.658Z,2.87
2018-04-27T09:52:22.530Z,2.87
2018-04-27T09:54:57.926Z,3.47
2018-04-27T09:57:32.649Z,3.67
2018-04-27T10:00:09.163Z,3.07
2018-04-27T10:02:43.811Z,3.50
2018-04-27T10:05:20.681Z,3.23
2018-04-27T10:07:54.652Z,3.33
2018-04-27T10:10:28.623Z,3.57
2018-04-27T10:13:02.527Z,3.73
2018-04-27T10:15:37.097Z,3.43
2018-04-27T10:18:12.239Z,3.40
2018-04-27T10:20:46.371Z,3.27
2018-04-27T10:23:21.012Z,4.10
2018-04-27T10:25:57.577Z,3.63
2018-04-27T10:28:32.103Z,3.50
2018-04-27T10:31:06.222Z,3.57
2018-04-27T10:33:41.330Z,3.50
2018-04-27T10:36:15.042Z,3.40
2018-04-27T10:38:49.962Z,3.97
2018-04-27T10:41:23.751Z,3.90
2018-04-27T10:43:57.707Z,4.23
2018-04-27T10:46:31.591Z,4.20
2018-04-27T10:49:07.350Z,3.90
2018-04-27T10:51:41.963Z,3.73
2018-04-27T10:54:17.212Z,3.80
2018-04-27T10:56:51.507Z,3.60
2018-04-27T10:59:26.449Z,3.53
2018-04-27T11:02:02.295Z,3.70
2018-04-27T11:04:37.967Z,3.70
2018-04-27T11:07:11.642Z,3.37
2018-04-27T11:09:46.494Z,3.83
2018-04-27T11:12:20.788Z,3.57
2018-04-27T11:14:57.675Z,3.50
2018-04-27T11:17:32.904Z,3.30
2018-04-27T11:20:08.311Z,3.47
2018-04-27T11:22:42.971Z,3.20
2018-04-27T11:25:18.219Z,4.10
2018-04-27T11:27:52.736Z,4.17
2018-04-27T11:30:27.781Z,4.03
2018-04-27T11:33:02.688Z,3.97
2018-04-27T11:35:37.340Z,4.00
2018-04-27T11:38:11.148Z,3.70
2018-04-27T11:40:46.993Z,4.20
2018-04-27T11:43:21.815Z,3.63
2018-04-27T11:45:57.551Z,3.60
2018-04-27T11:48:32.288Z,4.07
2018-04-27T11:51:08.652Z,3.80
2018-04-27T11:53:43.271Z,4.33
2018-04-27T11:56:18.507Z,4.13
2018-04-27T11:58:52.200Z,4.07
2018-04-27T12:01:26.133Z,3.47
2018-04-27T12:04:00.640Z,4.30
2018-04-27T12:06:34.830Z,3.80
2018-04-27T12:09:09.987Z,3.97
2018-04-27T12:11:44.246Z,4.57
2018-04-27T12:14:19.033Z,4.53
2018-04-27T12:16:52.819Z,4.13
2018-04-27T12:19:27.651Z,4.23
2018-04-27T12:22:03.300Z,3.90
2018-04-27T12:24:38.116Z,4.10
2018-04-27T12:27:12.311Z,4.17
2018-04-27T12:29:47.083Z,3.63
2018-04-27T12:32:21.190Z,4.10
2018-04-27T12:34:56.217Z,4.03
2018-04-27T12:37:33.258Z,3.50
2018-04-27T12:40:07.652Z,3.90
2018-04-27T12:42:41.299Z,3.53
2018-04-27T12:45:16.351Z,4.13
2018-04-27T12:47:50.473Z,3.40
2018-04-27T12:50:25.068Z,3.93
2018-04-27T12:52:59.096Z,3.50
2018-04-27T12:55:35.718Z,3.70
2018-04-27T12:58:10.070Z,4.13
2018-04-27T13:00:45.307Z,4.57
2018-04-27T13:03:20.953Z,4.20
2018-04-27T13:05:56.918Z,3.60
2018-04-27T13:08:30.920Z,3.63
2018-04-27T13:11:07.917Z,4.00
2018-04-27T13:13:42.930Z,3.33
2018-04-27T13:16:17.875Z,3.93
2018-04-27T13:18:52.876Z,3.53
2018-04-27T13:21:28.941Z,4.37
2018-04-27T13:24:03.671Z,4.27
2018-04-27T13:26:39.398Z,4.00
2018-04-27T13:29:13.332Z,3.80
2018-04-27T13:31:48.079Z,3.90
2018-04-27T13:34:22.893Z,4.47
2018-04-27T13:36:56.906Z,4.00
2018-04-27T13:39:30.807Z,3.83
2018-04-27T13:42:06.871Z,3.73
2018-04-27T13:44:42.014Z,4.40
2018-04-27T13:47:18.550Z,4.30
2018-04-27T13:49:52.699Z,4.17
2018-04-27T13:52:29.955Z,3.90
2018-04-27T13:55:04.885Z,3.70
2018-04-27T13:57:40.738Z,4.10
2018-04-27T14:00:15.572Z,4.43
2018-04-27T14:02:50.393Z,3.77
2018-04-27T14:05:26.759Z,3.77
2018-04-27T14:08:00.556Z,3.63
2018-04-27T14:10:35.300Z,4.33
2018-04-27T14:13:09.903Z,3.57
2018-04-27T14:15:43.931Z,3.80
2018-04-27T14:18:19.840Z,3.67
2018-04-27T14:20:56.038Z,3.50
2018-04-27T14:23:30.867Z,3.53
2018-04-27T14:26:05.669Z,3.30
2018-04-27T14:28:39.883Z,3.37
2018-04-27T14:31:13.804Z,3.53
2018-04-27T14:33:48.744Z,3.30
2018-04-27T14:49:14.547Z,3.33
2018-04-27T14:51:49.221Z,3.10
2018-04-27T14:54:23.680Z,2.90
2018-04-27T14:56:57.900Z,2.83
2018-04-27T14:59:31.833Z,3.00
2018-04-27T15:02:05.815Z,2.70
2018-04-27T15:04:39.598Z,3.30
2018-04-27T15:07:14.229Z,3.07
2018-04-27T15:09:48.738Z,3.07
2018-04-27T15:12:23.337Z,3.07
2018-04-27T15:14:58.464Z,2.90
2018-04-27T15:17:33.223Z,2.57
2018-04-27T15:20:08.074Z,2.60
2018-04-27T15:22:42.017Z,3.00
2018-04-27T15:25:18.743Z,3.60
2018-04-27T15:27:53.480Z,3.50
2018-04-27T15:30:29.502Z,3.37
2018-04-27T15:33:03.552Z,3.27
2018-04-27T15:35:38.461Z,3.60
2018-04-27T15:38:16.482Z,3.63
2018-04-27T15:40:50.962Z,3.73
2018-04-27T15:43:26.358Z,3.07
2018-04-27T15:46:00.391Z,3.27
2018-04-27T15:48:38.059Z,3.17
2018-04-27T15:51:13.567Z,3.13
2018-04-27T15:53:49.650Z,2.53
2018-04-27T15:56:25.887Z,2.90
2018-04-27T15:59:00.723Z,3.00
2018-04-27T16:01:35.444Z,2.80
2018-04-27T16:04:09.659Z,2.80
2018-04-27T16:06:45.830Z,3.03
2018-04-27T16:09:21.480Z,2.83
2018-04-27T16:11:56.704Z,3.17
2018-04-27T16:14:31.326Z,3.40
2018-04-27T16:17:06.047Z,3.40
2018-04-27T16:19:40.063Z,2.90
2018-04-27T16:22:14.832Z,2.93
2018-04-27T16:24:51.156Z,3.20
2018-04-27T16:27:25.179Z,2.87
2018-04-27T16:30:00.390Z,3.13
2018-04-27T16:32:34.302Z,2.97
2018-04-27T16:35:10.247Z,3.00
2018-04-27T16:37:44.743Z,3.23
2018-04-27T16:40:18.467Z,2.87
2018-04-27T16:42:53.209Z,3.20
2018-04-27T16:45:28.962Z,2.70
2018-04-27T16:48:03.789Z,2.50
2018-04-27T16:50:38.431Z,2.67
2018-04-27T16:53:12.146Z,2.97
2018-04-27T16:55:49.301Z,2.40
2018-04-27T16:58:23.493Z,2.50
2018-04-27T17:00:59.470Z,2.60
2018-04-27T17:03:33.357Z,3.40
2018-04-27T17:06:09.541Z,2.90
2018-04-27T17:08:43.806Z,2.70
2018-04-27T17:11:19.716Z,2.47
2018-04-27T17:13:54.348Z,2.40
2018-04-27T17:16:29.311Z,2.10
2018-04-27T17:19:03.156Z,2.23
2018-04-27T17:21:37.899Z,2.40
2018-04-27T17:24:13.890Z,2.43
2018-04-27T17:26:49.484Z,3.13
2018-04-27T17:29:23.184Z,4.27
2018-04-27T17:31:57.574Z,3.03
2018-04-27T17:34:31.308Z,6.73
2018-04-27T17:37:05.490Z,3.97
2018-04-27T17:39:41.442Z,2.53
2018-04-27T17:42:16.610Z,3.47
2018-04-27T17:44:51.103Z,3.50
2018-04-27T17:47:24.811Z,3.10
2018-04-27T17:49:58.563Z,2.97
2018-04-27T17:52:33.807Z,3.10
2018-04-27T17:55:09.072Z,2.83
2018-04-27T17:57:43.446Z,3.23
2018-04-27T18:00:18.553Z,3.13
2018-04-27T18:02:52.578Z,3.00
2018-04-27T18:05:28.761Z,3.20
2018-04-27T18:08:07.007Z,3.23
2018-04-27T18:10:41.802Z,3.50
2018-04-27T18:13:19.292Z,3.50
2018-04-27T18:15:54.270Z,4.00
2018-04-27T18:18:29.514Z,3.67
2018-04-27T18:21:03.047Z,3.83
2018-04-27T18:23:38.528Z,3.50
2018-04-27T18:26:14.432Z,2.90
2018-04-27T18:28:51.232Z,3.30
2018-04-27T18:31:30.125Z,3.23
2018-04-27T18:34:05.059Z,3.00
2018-04-27T18:36:40.613Z,3.00
2018-04-27T18:39:15.795Z,3.20
2018-04-27T18:41:50.980Z,3.53
2018-04-27T18:44:25.359Z,3.30
2018-04-27T18:46:59.822Z,3.00
2018-04-27T18:49:33.708Z,2.97
2018-04-27T18:52:09.689Z,3.03
2018-04-27T18:54:43.391Z,2.93
2018-04-27T18:57:21.603Z,2.80
2018-04-27T19:00:02.819Z,3.10
2018-04-27T19:02:38.497Z,3.40
2018-04-27T19:05:12.429Z,3.77
2018-04-27T19:07:47.772Z,3.80
2018-04-27T19:10:21.887Z,3.33
2018-04-27T19:13:01.310Z,3.53
2018-04-27T19:15:37.991Z,2.90
2018-04-27T19:18:14.270Z,3.07
2018-04-27T19:20:51.323Z,2.93
2018-04-27T19:23:29.860Z,3.10
2018-04-27T19:26:06.921Z,2.80
2018-04-27T19:28:40.628Z,2.70
2018-04-27T19:31:15.965Z,2.60
2018-04-27T19:37:01.168Z,3.20
2018-04-27T19:39:49.022Z,3.30
2018-04-27T19:42:23.824Z,3.57
2018-04-27T19:45:01.822Z,3.83
2018-04-27T19:47:44.785Z,3.50
2018-04-27T19:50:38.706Z,3.90
2018-04-27T19:53:12.628Z,4.03
2018-04-27T19:55:48.585Z,3.43
2018-04-27T19:58:23.000Z,3.57
2018-04-27T20:01:00.024Z,2.70
2018-04-27T20:03:34.279Z,3.00
2018-04-27T20:06:08.813Z,2.93
2018-04-27T20:08:43.708Z,3.17
2018-04-27T20:11:19.878Z,2.67
2018-04-27T20:13:54.859Z,2.50
2018-04-27T20:16:38.879Z,2.30
2018-04-27T20:19:12.993Z,2.60
2018-04-27T20:21:48.946Z,2.87
2018-04-27T20:24:22.862Z,3.13
2018-04-27T20:26:58.810Z,3.37
2018-04-27T20:29:32.959Z,2.80
2018-04-27T20:32:10.038Z,2.60
2018-04-27T20:34:45.353Z,2.70
2018-04-27T20:37:20.235Z,2.60
2018-04-27T20:39:56.541Z,2.60
2018-04-27T20:42:31.352Z,2.73
2018-04-27T20:45:20.239Z,2.80
2018-04-27T20:47:56.683Z,2.40
2018-04-27T20:50:31.022Z,3.00
2018-04-27T20:53:05.027Z,2.67
2018-04-27T20:55:39.635Z,3.37
2018-04-27T20:58:14.157Z,3.00
2018-04-27T21:00:49.196Z,3.10
2018-04-27T21:03:24.228Z,2.57
2018-04-27T21:05:58.746Z,2.90
2018-04-27T21:08:32.566Z,2.93
2018-04-27T21:11:07.795Z,3.10
2018-04-27T21:13:42.511Z,2.70
2018-04-27T21:16:17.959Z,4.07
2018-04-27T21:18:52.371Z,3.37
2018-04-27T21:21:27.918Z,3.40
2018-04-27T21:24:02.720Z,3.67
2018-04-27T21:26:38.711Z,3.30
2018-04-27T21:29:38.513Z,3.33
2018-04-27T21:32:13.055Z,3.93
2018-04-27T21:34:49.724Z,3.80
2018-04-27T21:37:24.655Z,3.70
2018-04-27T21:39:59.155Z,4.00
2018-04-27T21:42:32.986Z,3.73
2018-04-27T21:45:08.695Z,3.60
2018-04-27T21:47:44.164Z,3.83
2018-04-27T21:50:21.145Z,3.47
2018-04-27T21:52:56.896Z,3.43
2018-04-27T21:55:31.562Z,3.57
2018-04-27T21:58:10.431Z,3.93
2018-04-27T22:00:45.799Z,3.50
2018-04-27T22:03:20.733Z,3.83
2018-04-27T22:05:57.995Z,3.67
2018-04-27T22:22:07.621Z,3.33
2018-04-27T22:24:49.918Z,3.87
2018-04-27T22:27:31.206Z,3.53
2018-04-27T22:30:38.081Z,3.70
2018-04-27T22:33:22.444Z,3.50
2018-04-27T22:36:01.879Z,3.30
2018-04-27T22:38:42.425Z,3.50
2018-04-27T22:41:17.686Z,3.17
2018-04-27T22:43:52.297Z,3.60
2018-04-27T22:46:29.479Z,3.23
2018-04-27T22:49:05.378Z,3.70
2018-04-27T22:51:43.834Z,3.70
2018-04-27T23:07:46.106Z,3.80
2018-04-27T23:10:20.123Z,4.00
2018-04-27T23:13:06.629Z,3.50
2018-04-27T23:15:41.364Z,3.93
2018-04-27T23:18:17.303Z,4.10
2018-04-27T23:20:53.546Z,3.60
2018-04-27T23:23:29.090Z,3.67
2018-04-27T23:26:02.818Z,3.30
2018-04-27T23:28:36.929Z,3.47
2018-04-27T23:31:10.602Z,3.57
2018-04-27T23:33:46.467Z,3.63
2018-04-27T23:36:20.290Z,4.10
2018-04-27T23:38:55.613Z,4.10
2018-04-27T23:41:29.717Z,3.70
2018-04-27T23:44:05.157Z,3.80
2018-04-27T23:46:38.978Z,3.87
2018-04-27T23:49:12.771Z,3.40
2018-04-27T23:51:47.506Z,3.47
2018-04-27T23:54:23.036Z,3.83
2018-04-27T23:56:59.018Z,3.60
2018-04-27T23:59:37.405Z,4.00
